sensor_id;sensor_type;location;lat;lon;timestamp;temperature;humidity
64939;DHT22;51453;47.738;7.420;2023-04-30T00:01:43;11.90;99.90
64939;DHT22;51453;47.738;7.420;2023-04-30T00:04:09;11.90;99.90
64939;DHT22;51453;47.738;7.420;2023-04-30T00:06:35;11.90;99.90
64939;DHT22;51453;47.738;7.420;2023-04-30T00:09:00;11.90;99.90
64939;DHT22;51453;47.738;7.420;2023-04-30T00:11:26;11.90;99.90
64939;DHT22;51453;47.738;7.420;2023-04-30T00:13:52;11.90;99.90
64939;DHT22;51453;47.738;7.420;2023-04-30T00:16:18;11.90;99.90
64939;DHT22;51453;47.738;7.420;2023-04-30T00:18:44;12.00;99.90
64939;DHT22;51453;47.738;7.420;2023-04-30T00:21:10;12.00;99.90
64939;DHT22;51453;47.738;7.420;2023-04-30T00:23:35;12.00;99.90
64939;DHT22;51453;47.738;7.420;2023-04-30T00:26:01;12.00;99.90
64939;DHT22;51453;47.738;7.420;2023-04-30T00:28:27;11.90;99.90
64939;DHT22;51453;47.738;7.420;2023-04-30T00:30:53;11.90;99.90
64939;DHT22;51453;47.738;7.420;2023-04-30T00:33:18;11.90;99.90
64939;DHT22;51453;47.738;7.420;2023-04-30T00:35:44;11.90;99.90
64939;DHT22;51453;47.738;7.420;2023-04-30T00:38:10;11.80;99.90
64939;DHT22;51453;47.738;7.420;2023-04-30T00:40:37;11.80;99.90
64939;DHT22;51453;47.738;7.420;2023-04-30T00:43:04;11.80;99.90
64939;DHT22;51453;47.738;7.420;2023-04-30T00:45:30;11.80;99.90
64939;DHT22;51453;47.738;7.420;2023-04-30T00:47:56;11.80;99.90
64939;DHT22;51453;47.738;7.420;2023-04-30T00:50:22;11.80;99.90
64939;DHT22;51453;47.738;7.420;2023-04-30T00:52:48;11.80;99.90
64939;DHT22;51453;47.738;7.420;2023-04-30T00:55:14;11.80;99.90
64939;DHT22;51453;47.738;7.420;2023-04-30T00:57:39;11.80;99.90
64939;DHT22;51453;47.738;7.420;2023-04-30T01:00:06;11.80;99.90
64939;DHT22;51453;47.738;7.420;2023-04-30T01:02:36;11.80;99.90
64939;DHT22;51453;47.738;7.420;2023-04-30T01:05:02;11.80;99.90
64939;DHT22;51453;47.738;7.420;2023-04-30T01:07:29;11.80;99.90
64939;DHT22;51453;47.738;7.420;2023-04-30T01:09:56;11.80;99.90
64939;DHT22;51453;47.738;7.420;2023-04-30T01:12:40;11.80;99.90
64939;DHT22;51453;47.738;7.420;2023-04-30T01:18:38;11.80;99.90
64939;DHT22;51453;47.738;7.420;2023-04-30T01:21:07;11.80;99.90
64939;DHT22;51453;47.738;7.420;2023-04-30T01:29:11;11.80;99.90
64939;DHT22;51453;47.738;7.420;2023-04-30T01:31:42;11.70;99.90
64939;DHT22;51453;47.738;7.420;2023-04-30T01:34:08;11.80;99.90
64939;DHT22;51453;47.738;7.420;2023-04-30T01:42:47;11.60;99.90
64939;DHT22;51453;47.738;7.420;2023-04-30T01:45:23;11.60;99.90
64939;DHT22;51453;47.738;7.420;2023-04-30T01:50:41;11.50;99.90
64939;DHT22;51453;47.738;7.420;2023-04-30T01:53:15;11.40;99.90
64939;DHT22;51453;47.738;7.420;2023-04-30T01:55:55;11.30;99.90
64939;DHT22;51453;47.738;7.420;2023-04-30T01:58:22;11.30;99.90
64939;DHT22;51453;47.738;7.420;2023-04-30T02:00:49;11.20;99.90
64939;DHT22;51453;47.738;7.420;2023-04-30T02:03:15;11.20;99.90
64939;DHT22;51453;47.738;7.420;2023-04-30T02:05:40;11.10;99.90
64939;DHT22;51453;47.738;7.420;2023-04-30T02:08:06;11.10;99.90
64939;DHT22;51453;47.738;7.420;2023-04-30T02:10:31;11.00;99.90
64939;DHT22;51453;47.738;7.420;2023-04-30T02:12:57;11.00;99.90
64939;DHT22;51453;47.738;7.420;2023-04-30T02:15:23;11.00;99.90
64939;DHT22;51453;47.738;7.420;2023-04-30T02:17:49;10.90;99.90
64939;DHT22;51453;47.738;7.420;2023-04-30T02:20:14;10.90;99.90
64939;DHT22;51453;47.738;7.420;2023-04-30T02:22:40;10.90;99.90
64939;DHT22;51453;47.738;7.420;2023-04-30T02:25:06;10.90;99.90
64939;DHT22;51453;47.738;7.420;2023-04-30T02:27:32;10.90;99.90
64939;DHT22;51453;47.738;7.420;2023-04-30T02:29:58;10.90;99.90
64939;DHT22;51453;47.738;7.420;2023-04-30T02:32:24;11.00;99.90
64939;DHT22;51453;47.738;7.420;2023-04-30T02:34:50;11.00;99.90
64939;DHT22;51453;47.738;7.420;2023-04-30T02:37:16;11.10;99.90
64939;DHT22;51453;47.738;7.420;2023-04-30T02:39:41;11.10;99.90
64939;DHT22;51453;47.738;7.420;2023-04-30T02:42:07;11.10;99.90
64939;DHT22;51453;47.738;7.420;2023-04-30T02:44:33;11.10;99.90
64939;DHT22;51453;47.738;7.420;2023-04-30T02:47:00;11.10;99.90
64939;DHT22;51453;47.738;7.420;2023-04-30T02:49:25;11.10;99.90
64939;DHT22;51453;47.738;7.420;2023-04-30T02:51:52;11.10;99.90
64939;DHT22;51453;47.738;7.420;2023-04-30T02:54:17;11.10;99.90
64939;DHT22;51453;47.738;7.420;2023-04-30T02:56:43;11.20;99.90
64939;DHT22;51453;47.738;7.420;2023-04-30T02:59:09;11.20;99.90
64939;DHT22;51453;47.738;7.420;2023-04-30T03:01:35;11.20;99.90
64939;DHT22;51453;47.738;7.420;2023-04-30T03:04:01;11.10;99.90
64939;DHT22;51453;47.738;7.420;2023-04-30T03:06:32;11.10;99.90
64939;DHT22;51453;47.738;7.420;2023-04-30T03:08:58;11.10;99.90
64939;DHT22;51453;47.738;7.420;2023-04-30T03:11:24;11.10;99.90
64939;DHT22;51453;47.738;7.420;2023-04-30T03:13:50;11.10;99.90
64939;DHT22;51453;47.738;7.420;2023-04-30T03:16:17;11.10;99.90
64939;DHT22;51453;47.738;7.420;2023-04-30T03:18:44;11.10;99.90
64939;DHT22;51453;47.738;7.420;2023-04-30T03:21:10;11.10;99.90
64939;DHT22;51453;47.738;7.420;2023-04-30T03:23:36;11.00;99.90
64939;DHT22;51453;47.738;7.420;2023-04-30T03:26:01;11.00;99.90
64939;DHT22;51453;47.738;7.420;2023-04-30T03:28:27;11.00;99.90
64939;DHT22;51453;47.738;7.420;2023-04-30T03:30:53;11.00;99.90
64939;DHT22;51453;47.738;7.420;2023-04-30T03:33:18;11.00;99.90
64939;DHT22;51453;47.738;7.420;2023-04-30T03:35:44;11.00;99.90
64939;DHT22;51453;47.738;7.420;2023-04-30T03:38:10;10.90;99.90
64939;DHT22;51453;47.738;7.420;2023-04-30T03:40:36;11.00;99.90
64939;DHT22;51453;47.738;7.420;2023-04-30T03:43:01;11.00;99.90
64939;DHT22;51453;47.738;7.420;2023-04-30T03:45:27;11.00;99.90
64939;DHT22;51453;47.738;7.420;2023-04-30T03:47:53;10.90;99.90
64939;DHT22;51453;47.738;7.420;2023-04-30T03:50:18;11.00;99.90
64939;DHT22;51453;47.738;7.420;2023-04-30T03:52:44;10.90;99.90
64939;DHT22;51453;47.738;7.420;2023-04-30T03:55:11;10.90;99.90
64939;DHT22;51453;47.738;7.420;2023-04-30T03:57:38;10.90;99.90
64939;DHT22;51453;47.738;7.420;2023-04-30T04:00:05;10.90;99.90
64939;DHT22;51453;47.738;7.420;2023-04-30T04:02:35;10.80;99.90
64939;DHT22;51453;47.738;7.420;2023-04-30T04:05:01;10.90;99.90
64939;DHT22;51453;47.738;7.420;2023-04-30T04:07:27;10.90;99.90
64939;DHT22;51453;47.738;7.420;2023-04-30T04:09:53;10.80;99.90
64939;DHT22;51453;47.738;7.420;2023-04-30T04:12:18;10.80;99.90
64939;DHT22;51453;47.738;7.420;2023-04-30T04:14:44;10.80;99.90
64939;DHT22;51453;47.738;7.420;2023-04-30T04:17:10;10.80;99.90
64939;DHT22;51453;47.738;7.420;2023-04-30T04:19:36;10.80;99.90
64939;DHT22;51453;47.738;7.420;2023-04-30T04:22:01;10.80;99.90
64939;DHT22;51453;47.738;7.420;2023-04-30T04:24:27;10.80;99.90
64939;DHT22;51453;47.738;7.420;2023-04-30T04:26:52;10.80;99.90
64939;DHT22;51453;47.738;7.420;2023-04-30T04:29:19;10.80;99.90
64939;DHT22;51453;47.738;7.420;2023-04-30T04:31:44;10.80;99.90
64939;DHT22;51453;47.738;7.420;2023-04-30T04:34:13;10.80;99.90
64939;DHT22;51453;47.738;7.420;2023-04-30T04:36:38;10.80;99.90
64939;DHT22;51453;47.738;7.420;2023-04-30T04:39:04;10.80;99.90
64939;DHT22;51453;47.738;7.420;2023-04-30T04:41:33;10.80;99.90
64939;DHT22;51453;47.738;7.420;2023-04-30T04:44:02;10.80;99.90
64939;DHT22;51453;47.738;7.420;2023-04-30T04:46:29;10.80;99.90
64939;DHT22;51453;47.738;7.420;2023-04-30T04:48:56;10.80;99.90
64939;DHT22;51453;47.738;7.420;2023-04-30T04:51:22;10.80;99.90
64939;DHT22;51453;47.738;7.420;2023-04-30T04:53:47;10.90;99.90
64939;DHT22;51453;47.738;7.420;2023-04-30T04:56:13;10.90;99.90
64939;DHT22;51453;47.738;7.420;2023-04-30T04:58:41;10.90;99.90
64939;DHT22;51453;47.738;7.420;2023-04-30T05:01:06;11.00;99.90
64939;DHT22;51453;47.738;7.420;2023-04-30T05:03:34;11.00;99.90
64939;DHT22;51453;47.738;7.420;2023-04-30T05:06:03;10.90;99.90
64939;DHT22;51453;47.738;7.420;2023-04-30T05:08:29;11.00;99.90
64939;DHT22;51453;47.738;7.420;2023-04-30T05:10:54;11.00;99.90
64939;DHT22;51453;47.738;7.420;2023-04-30T05:13:20;10.90;99.90
64939;DHT22;51453;47.738;7.420;2023-04-30T05:15:49;11.00;99.90
64939;DHT22;51453;47.738;7.420;2023-04-30T05:18:15;11.00;99.90
64939;DHT22;51453;47.738;7.420;2023-04-30T05:20:41;11.00;99.90
64939;DHT22;51453;47.738;7.420;2023-04-30T05:23:06;11.10;99.90
64939;DHT22;51453;47.738;7.420;2023-04-30T05:25:32;11.20;99.90
64939;DHT22;51453;47.738;7.420;2023-04-30T05:27:58;11.30;99.90
64939;DHT22;51453;47.738;7.420;2023-04-30T05:30:23;11.50;99.90
64939;DHT22;51453;47.738;7.420;2023-04-30T05:32:49;11.60;99.90
64939;DHT22;51453;47.738;7.420;2023-04-30T05:35:17;11.80;99.90
64939;DHT22;51453;47.738;7.420;2023-04-30T05:37:43;12.00;99.90
64939;DHT22;51453;47.738;7.420;2023-04-30T05:40:09;12.20;99.90
64939;DHT22;51453;47.738;7.420;2023-04-30T05:42:35;12.50;99.90
64939;DHT22;51453;47.738;7.420;2023-04-30T05:45:03;12.60;99.90
64939;DHT22;51453;47.738;7.420;2023-04-30T05:47:28;12.70;99.90
64939;DHT22;51453;47.738;7.420;2023-04-30T05:49:55;12.80;99.90
64939;DHT22;51453;47.738;7.420;2023-04-30T05:52:22;12.90;99.90
64939;DHT22;51453;47.738;7.420;2023-04-30T05:54:47;13.30;99.90
64939;DHT22;51453;47.738;7.420;2023-04-30T05:57:13;13.00;99.90
64939;DHT22;51453;47.738;7.420;2023-04-30T05:59:39;12.70;99.90
64939;DHT22;51453;47.738;7.420;2023-04-30T06:02:05;12.50;99.90
64939;DHT22;51453;47.738;7.420;2023-04-30T06:04:31;12.40;99.90
64939;DHT22;51453;47.738;7.420;2023-04-30T06:06:57;12.60;99.90
64939;DHT22;51453;47.738;7.420;2023-04-30T06:09:22;12.80;99.90
64939;DHT22;51453;47.738;7.420;2023-04-30T06:11:48;12.80;99.90
64939;DHT22;51453;47.738;7.420;2023-04-30T06:14:15;12.80;99.90
64939;DHT22;51453;47.738;7.420;2023-04-30T06:16:42;13.00;99.90
64939;DHT22;51453;47.738;7.420;2023-04-30T06:19:08;13.20;99.90
64939;DHT22;51453;47.738;7.420;2023-04-30T06:21:34;13.50;99.90
64939;DHT22;51453;47.738;7.420;2023-04-30T06:24:00;14.00;99.90
64939;DHT22;51453;47.738;7.420;2023-04-30T06:26:26;14.20;99.90
64939;DHT22;51453;47.738;7.420;2023-04-30T06:28:51;14.40;99.90
64939;DHT22;51453;47.738;7.420;2023-04-30T06:31:17;14.20;99.90
64939;DHT22;51453;47.738;7.420;2023-04-30T06:33:43;14.10;99.90
64939;DHT22;51453;47.738;7.420;2023-04-30T06:36:08;14.20;99.90
64939;DHT22;51453;47.738;7.420;2023-04-30T06:38:34;14.40;99.90
64939;DHT22;51453;47.738;7.420;2023-04-30T06:41:00;14.50;99.90
64939;DHT22;51453;47.738;7.420;2023-04-30T06:43:25;14.50;99.90
64939;DHT22;51453;47.738;7.420;2023-04-30T06:45:51;14.60;99.90
64939;DHT22;51453;47.738;7.420;2023-04-30T06:48:18;14.50;99.90
64939;DHT22;51453;47.738;7.420;2023-04-30T06:50:43;14.50;99.90
64939;DHT22;51453;47.738;7.420;2023-04-30T06:53:13;14.70;99.90
64939;DHT22;51453;47.738;7.420;2023-04-30T06:55:39;14.90;99.90
64939;DHT22;51453;47.738;7.420;2023-04-30T06:58:05;14.70;99.90
64939;DHT22;51453;47.738;7.420;2023-04-30T07:00:31;14.80;99.90
64939;DHT22;51453;47.738;7.420;2023-04-30T07:02:57;14.70;99.90
64939;DHT22;51453;47.738;7.420;2023-04-30T07:05:27;14.70;99.90
64939;DHT22;51453;47.738;7.420;2023-04-30T07:07:52;14.80;99.90
64939;DHT22;51453;47.738;7.420;2023-04-30T07:10:18;14.90;99.90
64939;DHT22;51453;47.738;7.420;2023-04-30T07:12:44;15.00;99.90
64939;DHT22;51453;47.738;7.420;2023-04-30T07:15:10;15.00;99.90
64939;DHT22;51453;47.738;7.420;2023-04-30T07:17:36;15.20;99.90
64939;DHT22;51453;47.738;7.420;2023-04-30T07:20:03;15.20;99.90
64939;DHT22;51453;47.738;7.420;2023-04-30T07:22:29;15.70;99.90
64939;DHT22;51453;47.738;7.420;2023-04-30T07:24:56;15.80;99.90
64939;DHT22;51453;47.738;7.420;2023-04-30T07:27:21;15.70;99.90
64939;DHT22;51453;47.738;7.420;2023-04-30T07:29:47;15.70;99.90
64939;DHT22;51453;47.738;7.420;2023-04-30T07:32:13;15.40;99.90
64939;DHT22;51453;47.738;7.420;2023-04-30T07:34:40;15.40;99.90
64939;DHT22;51453;47.738;7.420;2023-04-30T07:37:07;15.40;99.90
64939;DHT22;51453;47.738;7.420;2023-04-30T07:39:34;15.80;99.90
64939;DHT22;51453;47.738;7.420;2023-04-30T07:42:01;16.00;99.90
64939;DHT22;51453;47.738;7.420;2023-04-30T07:44:28;15.70;99.90
64939;DHT22;51453;47.738;7.420;2023-04-30T07:46:54;15.30;99.90
64939;DHT22;51453;47.738;7.420;2023-04-30T07:49:20;15.20;99.90
64939;DHT22;51453;47.738;7.420;2023-04-30T07:51:46;15.20;99.90
64939;DHT22;51453;47.738;7.420;2023-04-30T07:54:12;15.20;99.90
64939;DHT22;51453;47.738;7.420;2023-04-30T07:56:37;15.40;99.90
64939;DHT22;51453;47.738;7.420;2023-04-30T07:59:04;15.80;99.90
64939;DHT22;51453;47.738;7.420;2023-04-30T08:01:29;16.00;99.90
64939;DHT22;51453;47.738;7.420;2023-04-30T08:03:55;16.30;99.90
64939;DHT22;51453;47.738;7.420;2023-04-30T08:06:21;16.00;99.90
64939;DHT22;51453;47.738;7.420;2023-04-30T08:08:47;16.00;99.90
64939;DHT22;51453;47.738;7.420;2023-04-30T08:11:13;15.90;99.90
64939;DHT22;51453;47.738;7.420;2023-04-30T08:13:39;15.90;99.90
64939;DHT22;51453;47.738;7.420;2023-04-30T08:16:06;15.80;99.90
64939;DHT22;51453;47.738;7.420;2023-04-30T08:18:32;16.00;99.90
64939;DHT22;51453;47.738;7.420;2023-04-30T08:20:59;16.40;99.90
64939;DHT22;51453;47.738;7.420;2023-04-30T08:23:25;16.70;99.90
64939;DHT22;51453;47.738;7.420;2023-04-30T08:25:50;16.90;99.90
64939;DHT22;51453;47.738;7.420;2023-04-30T08:28:16;17.00;99.90
64939;DHT22;51453;47.738;7.420;2023-04-30T08:30:43;17.30;99.90
64939;DHT22;51453;47.738;7.420;2023-04-30T08:33:09;17.50;99.90
64939;DHT22;51453;47.738;7.420;2023-04-30T08:35:35;17.40;99.90
64939;DHT22;51453;47.738;7.420;2023-04-30T08:38:00;17.20;99.90
64939;DHT22;51453;47.738;7.420;2023-04-30T08:40:27;17.20;99.90
64939;DHT22;51453;47.738;7.420;2023-04-30T08:43:05;17.20;99.90
64939;DHT22;51453;47.738;7.420;2023-04-30T08:45:32;17.60;99.90
64939;DHT22;51453;47.738;7.420;2023-04-30T08:47:58;17.40;99.90
64939;DHT22;51453;47.738;7.420;2023-04-30T08:50:25;17.60;99.90
64939;DHT22;51453;47.738;7.420;2023-04-30T08:52:51;17.80;99.90
64939;DHT22;51453;47.738;7.420;2023-04-30T08:55:17;18.20;99.90
64939;DHT22;51453;47.738;7.420;2023-04-30T08:57:42;17.80;99.90
64939;DHT22;51453;47.738;7.420;2023-04-30T09:00:08;17.00;99.90
64939;DHT22;51453;47.738;7.420;2023-04-30T09:02:34;16.90;99.90
64939;DHT22;51453;47.738;7.420;2023-04-30T09:05:13;17.30;99.90
64939;DHT22;51453;47.738;7.420;2023-04-30T09:07:44;17.60;99.90
64939;DHT22;51453;47.738;7.420;2023-04-30T09:10:19;17.80;99.90
64939;DHT22;51453;47.738;7.420;2023-04-30T09:12:58;18.20;99.90
64939;DHT22;51453;47.738;7.420;2023-04-30T09:15:25;18.50;99.90
64939;DHT22;51453;47.738;7.420;2023-04-30T09:17:50;18.40;99.90
64939;DHT22;51453;47.738;7.420;2023-04-30T09:20:29;18.10;99.90
64939;DHT22;51453;47.738;7.420;2023-04-30T09:23:05;18.00;99.90
64939;DHT22;51453;47.738;7.420;2023-04-30T09:25:38;18.00;99.90
64939;DHT22;51453;47.738;7.420;2023-04-30T09:28:09;18.10;99.90
64939;DHT22;51453;47.738;7.420;2023-04-30T09:30:35;17.80;99.90
64939;DHT22;51453;47.738;7.420;2023-04-30T09:33:01;17.80;99.90
64939;DHT22;51453;47.738;7.420;2023-04-30T09:35:33;17.90;99.90
64939;DHT22;51453;47.738;7.420;2023-04-30T09:38:02;18.00;99.90
64939;DHT22;51453;47.738;7.420;2023-04-30T09:40:39;18.00;99.90
64939;DHT22;51453;47.738;7.420;2023-04-30T09:43:05;18.20;99.90
64939;DHT22;51453;47.738;7.420;2023-04-30T09:45:47;18.50;99.90
64939;DHT22;51453;47.738;7.420;2023-04-30T09:48:16;18.10;99.90
64939;DHT22;51453;47.738;7.420;2023-04-30T09:50:43;18.10;99.90
64939;DHT22;51453;47.738;7.420;2023-04-30T09:53:11;18.00;99.90
64939;DHT22;51453;47.738;7.420;2023-04-30T09:55:47;18.10;99.90
64939;DHT22;51453;47.738;7.420;2023-04-30T09:58:14;18.10;99.90
64939;DHT22;51453;47.738;7.420;2023-04-30T10:00:41;18.40;99.90
64939;DHT22;51453;47.738;7.420;2023-04-30T10:03:09;19.10;99.90
64939;DHT22;51453;47.738;7.420;2023-04-30T10:05:36;19.80;99.90
64939;DHT22;51453;47.738;7.420;2023-04-30T10:08:04;20.30;99.90
64939;DHT22;51453;47.738;7.420;2023-04-30T10:10:31;20.80;99.90
64939;DHT22;51453;47.738;7.420;2023-04-30T10:13:03;21.70;99.90
64939;DHT22;51453;47.738;7.420;2023-04-30T10:15:37;21.30;99.90
64939;DHT22;51453;47.738;7.420;2023-04-30T10:18:08;20.80;99.90
64939;DHT22;51453;47.738;7.420;2023-04-30T10:20:36;20.30;99.90
64939;DHT22;51453;47.738;7.420;2023-04-30T10:23:03;20.10;99.90
64939;DHT22;51453;47.738;7.420;2023-04-30T10:25:31;19.90;99.90
64939;DHT22;51453;47.738;7.420;2023-04-30T10:27:57;19.60;99.90
64939;DHT22;51453;47.738;7.420;2023-04-30T10:30:23;20.00;99.90
64939;DHT22;51453;47.738;7.420;2023-04-30T10:33:05;19.60;99.90
64939;DHT22;51453;47.738;7.420;2023-04-30T10:35:50;19.10;99.90
64939;DHT22;51453;47.738;7.420;2023-04-30T10:38:22;18.70;99.90
64939;DHT22;51453;47.738;7.420;2023-04-30T10:40:50;19.10;99.90
64939;DHT22;51453;47.738;7.420;2023-04-30T10:43:18;19.30;99.90
64939;DHT22;51453;47.738;7.420;2023-04-30T10:45:46;19.00;99.90
64939;DHT22;51453;47.738;7.420;2023-04-30T10:48:14;18.80;99.90
64939;DHT22;51453;47.738;7.420;2023-04-30T10:50:41;18.60;99.90
64939;DHT22;51453;47.738;7.420;2023-04-30T10:53:12;18.40;99.90
64939;DHT22;51453;47.738;7.420;2023-04-30T10:55:53;18.20;99.90
64939;DHT22;51453;47.738;7.420;2023-04-30T10:58:32;18.30;99.90
64939;DHT22;51453;47.738;7.420;2023-04-30T11:01:10;18.20;99.90
64939;DHT22;51453;47.738;7.420;2023-04-30T11:03:39;18.20;99.90
64939;DHT22;51453;47.738;7.420;2023-04-30T11:06:14;18.40;99.90
64939;DHT22;51453;47.738;7.420;2023-04-30T11:08:44;18.40;99.90
64939;DHT22;51453;47.738;7.420;2023-04-30T11:11:11;18.50;99.90
64939;DHT22;51453;47.738;7.420;2023-04-30T11:13:57;18.70;99.90
64939;DHT22;51453;47.738;7.420;2023-04-30T11:16:33;18.60;99.90
64939;DHT22;51453;47.738;7.420;2023-04-30T11:19:12;18.60;99.90
64939;DHT22;51453;47.738;7.420;2023-04-30T11:24:52;18.70;99.90
64939;DHT22;51453;47.738;7.420;2023-04-30T11:27:37;18.80;99.90
64939;DHT22;51453;47.738;7.420;2023-04-30T11:30:15;18.90;99.90
64939;DHT22;51453;47.738;7.420;2023-04-30T11:32:46;19.10;99.90
64939;DHT22;51453;47.738;7.420;2023-04-30T11:35:12;19.30;99.90
64939;DHT22;51453;47.738;7.420;2023-04-30T11:37:39;19.60;99.90
64939;DHT22;51453;47.738;7.420;2023-04-30T11:40:12;19.60;99.90
64939;DHT22;51453;47.738;7.420;2023-04-30T11:42:39;19.40;99.90
64939;DHT22;51453;47.738;7.420;2023-04-30T11:45:10;19.60;99.90
64939;DHT22;51453;47.738;7.420;2023-04-30T11:47:44;19.70;99.90
64939;DHT22;51453;47.738;7.420;2023-04-30T11:50:12;19.40;99.90
64939;DHT22;51453;47.738;7.420;2023-04-30T11:52:43;19.30;99.90
64939;DHT22;51453;47.738;7.420;2023-04-30T11:55:15;19.20;99.90
64939;DHT22;51453;47.738;7.420;2023-04-30T11:57:46;19.30;99.90
64939;DHT22;51453;47.738;7.420;2023-04-30T12:00:17;19.70;99.90
64939;DHT22;51453;47.738;7.420;2023-04-30T12:02:45;19.80;99.90
64939;DHT22;51453;47.738;7.420;2023-04-30T12:05:30;20.00;99.90
64939;DHT22;51453;47.738;7.420;2023-04-30T12:07:59;20.20;99.90
64939;DHT22;51453;47.738;7.420;2023-04-30T12:10:25;20.50;99.90
64939;DHT22;51453;47.738;7.420;2023-04-30T12:12:51;21.00;99.90
64939;DHT22;51453;47.738;7.420;2023-04-30T12:15:24;21.00;99.90
64939;DHT22;51453;47.738;7.420;2023-04-30T12:17:52;20.90;99.90
64939;DHT22;51453;47.738;7.420;2023-04-30T12:20:19;21.70;99.90
64939;DHT22;51453;47.738;7.420;2023-04-30T12:22:46;21.90;99.90
64939;DHT22;51453;47.738;7.420;2023-04-30T12:25:14;21.20;99.90
64939;DHT22;51453;47.738;7.420;2023-04-30T12:27:45;21.00;99.90
64939;DHT22;51453;47.738;7.420;2023-04-30T12:30:12;21.30;99.90
64939;DHT22;51453;47.738;7.420;2023-04-30T12:32:45;21.60;99.90
64939;DHT22;51453;47.738;7.420;2023-04-30T12:35:17;21.40;99.90
64939;DHT22;51453;47.738;7.420;2023-04-30T12:37:48;21.40;99.90
64939;DHT22;51453;47.738;7.420;2023-04-30T12:40:18;22.10;99.90
64939;DHT22;51453;47.738;7.420;2023-04-30T12:42:44;21.90;99.90
64939;DHT22;51453;47.738;7.420;2023-04-30T12:45:12;21.60;99.90
64939;DHT22;51453;47.738;7.420;2023-04-30T12:47:41;20.60;99.90
64939;DHT22;51453;47.738;7.420;2023-04-30T12:50:08;20.50;99.90
64939;DHT22;51453;47.738;7.420;2023-04-30T12:52:34;20.50;99.90
64939;DHT22;51453;47.738;7.420;2023-04-30T12:55:20;20.30;99.90
64939;DHT22;51453;47.738;7.420;2023-04-30T12:58:08;20.90;99.90
64939;DHT22;51453;47.738;7.420;2023-04-30T13:00:48;21.00;99.90
64939;DHT22;51453;47.738;7.420;2023-04-30T13:03:15;20.90;99.90
64939;DHT22;51453;47.738;7.420;2023-04-30T13:05:54;20.60;99.90
64939;DHT22;51453;47.738;7.420;2023-04-30T13:08:20;20.20;99.90
64939;DHT22;51453;47.738;7.420;2023-04-30T13:10:46;19.80;99.90
64939;DHT22;51453;47.738;7.420;2023-04-30T13:13:13;19.70;99.90
64939;DHT22;51453;47.738;7.420;2023-04-30T13:15:39;20.20;99.90
64939;DHT22;51453;47.738;7.420;2023-04-30T13:18:07;20.20;99.90
64939;DHT22;51453;47.738;7.420;2023-04-30T13:20:34;20.10;99.90
64939;DHT22;51453;47.738;7.420;2023-04-30T13:23:00;20.00;99.90
64939;DHT22;51453;47.738;7.420;2023-04-30T13:25:26;20.00;99.90
64939;DHT22;51453;47.738;7.420;2023-04-30T13:27:53;20.10;99.90
64939;DHT22;51453;47.738;7.420;2023-04-30T13:30:18;20.10;99.90
64939;DHT22;51453;47.738;7.420;2023-04-30T13:32:44;19.90;99.90
64939;DHT22;51453;47.738;7.420;2023-04-30T13:35:11;20.00;99.90
64939;DHT22;51453;47.738;7.420;2023-04-30T13:37:37;20.20;99.90
64939;DHT22;51453;47.738;7.420;2023-04-30T13:40:05;20.60;99.90
64939;DHT22;51453;47.738;7.420;2023-04-30T13:42:31;20.50;99.90
64939;DHT22;51453;47.738;7.420;2023-04-30T13:44:57;20.70;99.90
64939;DHT22;51453;47.738;7.420;2023-04-30T13:47:22;20.50;99.90
64939;DHT22;51453;47.738;7.420;2023-04-30T13:49:48;20.40;99.90
64939;DHT22;51453;47.738;7.420;2023-04-30T13:52:14;20.60;99.90
64939;DHT22;51453;47.738;7.420;2023-04-30T13:54:39;20.80;99.90
64939;DHT22;51453;47.738;7.420;2023-04-30T13:57:05;21.00;99.90
64939;DHT22;51453;47.738;7.420;2023-04-30T13:59:32;20.90;99.90
64939;DHT22;51453;47.738;7.420;2023-04-30T14:01:58;20.30;99.90
64939;DHT22;51453;47.738;7.420;2023-04-30T14:04:23;20.50;99.90
64939;DHT22;51453;47.738;7.420;2023-04-30T14:06:50;20.20;99.90
64939;DHT22;51453;47.738;7.420;2023-04-30T14:09:17;20.20;99.90
64939;DHT22;51453;47.738;7.420;2023-04-30T14:11:42;20.10;99.90
64939;DHT22;51453;47.738;7.420;2023-04-30T14:14:08;20.00;99.90
64939;DHT22;51453;47.738;7.420;2023-04-30T14:16:34;20.10;99.90
64939;DHT22;51453;47.738;7.420;2023-04-30T14:19:00;19.80;99.90
64939;DHT22;51453;47.738;7.420;2023-04-30T14:21:25;19.80;99.90
64939;DHT22;51453;47.738;7.420;2023-04-30T14:23:54;19.70;99.90
64939;DHT22;51453;47.738;7.420;2023-04-30T14:26:20;19.90;99.90
64939;DHT22;51453;47.738;7.420;2023-04-30T14:28:46;20.10;99.90
64939;DHT22;51453;47.738;7.420;2023-04-30T14:31:12;20.30;99.90
64939;DHT22;51453;47.738;7.420;2023-04-30T14:33:38;20.30;99.90
64939;DHT22;51453;47.738;7.420;2023-04-30T14:36:04;20.30;99.90
64939;DHT22;51453;47.738;7.420;2023-04-30T14:38:30;20.30;99.90
64939;DHT22;51453;47.738;7.420;2023-04-30T14:40:56;20.40;99.90
64939;DHT22;51453;47.738;7.420;2023-04-30T14:43:21;20.60;99.90
64939;DHT22;51453;47.738;7.420;2023-04-30T14:45:48;20.60;99.90
64939;DHT22;51453;47.738;7.420;2023-04-30T14:48:14;20.50;99.90
64939;DHT22;51453;47.738;7.420;2023-04-30T14:50:39;20.30;99.90
64939;DHT22;51453;47.738;7.420;2023-04-30T14:53:05;20.40;99.90
64939;DHT22;51453;47.738;7.420;2023-04-30T14:55:31;20.60;99.90
64939;DHT22;51453;47.738;7.420;2023-04-30T14:57:58;20.60;99.90
64939;DHT22;51453;47.738;7.420;2023-04-30T15:00:24;20.30;99.90
64939;DHT22;51453;47.738;7.420;2023-04-30T15:02:49;20.40;99.90
64939;DHT22;51453;47.738;7.420;2023-04-30T15:05:15;20.30;99.90
64939;DHT22;51453;47.738;7.420;2023-04-30T15:07:41;20.30;99.90
64939;DHT22;51453;47.738;7.420;2023-04-30T15:10:07;20.60;99.90
64939;DHT22;51453;47.738;7.420;2023-04-30T15:12:33;20.70;99.90
64939;DHT22;51453;47.738;7.420;2023-04-30T15:15:00;20.20;99.90
64939;DHT22;51453;47.738;7.420;2023-04-30T15:17:26;20.00;99.90
64939;DHT22;51453;47.738;7.420;2023-04-30T15:19:52;19.80;99.90
64939;DHT22;51453;47.738;7.420;2023-04-30T15:22:18;19.60;99.90
64939;DHT22;51453;47.738;7.420;2023-04-30T15:24:43;19.50;99.90
64939;DHT22;51453;47.738;7.420;2023-04-30T15:27:09;19.50;99.90
64939;DHT22;51453;47.738;7.420;2023-04-30T15:29:35;19.30;99.90
64939;DHT22;51453;47.738;7.420;2023-04-30T15:32:01;19.40;99.90
64939;DHT22;51453;47.738;7.420;2023-04-30T15:34:27;19.40;99.90
64939;DHT22;51453;47.738;7.420;2023-04-30T15:36:53;19.30;99.90
64939;DHT22;51453;47.738;7.420;2023-04-30T15:39:18;19.10;99.90
64939;DHT22;51453;47.738;7.420;2023-04-30T15:41:46;19.10;99.90
64939;DHT22;51453;47.738;7.420;2023-04-30T15:44:11;19.20;99.90
64939;DHT22;51453;47.738;7.420;2023-04-30T15:46:37;19.30;99.90
64939;DHT22;51453;47.738;7.420;2023-04-30T15:49:03;19.10;99.90
64939;DHT22;51453;47.738;7.420;2023-04-30T15:51:28;19.10;99.90
64939;DHT22;51453;47.738;7.420;2023-04-30T15:53:54;19.20;99.90